Time;durP1;ratioP1;P1;durP2;ratioP2;P2;SDS_P1;SDS_P2;PMS_P1;PMS_P2;Temp;Humidity;BMP_temperature;BMP_pressure;BME280_temperature;BME280_humidity;BME280_pressure;Samples;Min_cycle;Max_cycle;Signal;HPM_P1;HPM_P2
2021/04/13 04:38:58;;;;;;;12.80;5.40;;;-0.40;99.90;;;;;;5876135;23;19968;-82
2021/04/13 04:41:40;;;;;;;8.07;4.10;;;-0.40;99.90;;;;;;4961246;28;20095;-82
2021/04/13 04:44:07;;;;;;;7.27;3.47;;;;;;;;;;4960683;29;20051;-82
2021/04/13 04:46:39;;;;;;;12.17;4.80;;;-0.40;99.90;;;;;;4961598;28;20473;-82
2021/04/13 04:56:54;;;;;;;7.57;4.30;;;-0.50;99.90;;;;;;5312336;23;20043;-82
2021/04/13 04:59:22;;;;;;;8.27;4.10;;;;;;;;;;4960027;28;20040;-81
2021/04/13 05:01:49;;;;;;;6.73;3.83;;;;;;;;;;4959726;28;20059;-81
2021/04/13 05:04:16;;;;;;;9.53;4.17;;;;;;;;;;4958141;29;20052;-81
2021/04/13 05:06:43;;;;;;;7.17;4.00;;;;;;;;;;4958970;28;20028;-82
2021/04/13 05:09:10;;;;;;;12.40;5.23;;;;;;;;;;4958832;28;20062;-82
2021/04/13 05:11:36;;;;;;;9.80;4.10;;;;;;;;;;4960656;28;20515;-82
2021/04/13 05:14:04;;;;;;;8.40;4.30;;;-0.40;99.90;;;;;;4957928;28;20052;-82
2021/04/13 05:16:31;;;;;;;8.97;4.47;;;;;;;;;;4960100;28;20082;-82
2021/04/13 05:18:58;;;;;;;7.27;3.63;;;;;;;;;;4961254;28;20074;-82
2021/04/13 05:55:11;;;;;;;14.85;7.10;;;-0.10;99.90;;;;;;4949050;27;20047;-82
2021/04/13 05:57:38;;;;;;;11.30;6.22;;;;;;;;;;4959901;28;20048;-82
2021/04/13 10:22:15;;;;;;;4.85;2.90;;;7.80;99.90;;;;;;4974995;23;20523;-87
2021/04/13 10:25:17;;;;;;;4.13;2.58;;;8.10;99.90;;;;;;4968388;28;20047;-88
2021/04/13 10:28:32;;;;;;;6.13;3.00;;;8.20;99.90;;;;;;4978530;28;20055;-87
2021/04/13 10:31:54;;;;;;;5.25;3.17;;;8.30;99.90;;;;;;4978430;28;20051;-88
2021/04/13 10:34:45;;;;;;;9.50;3.47;;;8.50;99.90;;;;;;4900279;29;20052;-88
2021/04/13 10:37:38;;;;;;;6.82;3.50;;;8.60;99.90;;;;;;4900683;29;20184;-88
2021/04/13 10:40:22;;;;;;;4.40;2.15;;;8.60;99.90;;;;;;4898835;29;20057;-88
2021/04/13 10:43:17;;;;;;;7.70;2.95;;;8.70;99.90;;;;;;4900324;29;20061;-88
2021/04/13 10:46:07;;;;;;;4.05;2.78;;;8.90;99.90;;;;;;4900603;29;20063;-89
2021/04/13 10:49:13;;;;;;;6.43;2.83;;;8.90;99.90;;;;;;4900377;29;20063;-89
2021/04/13 10:52:05;;;;;;;7.53;2.83;;;9.00;99.90;;;;;;4862994;29;20426;-88
2021/04/13 10:55:09;;;;;;;6.35;2.55;;;9.10;99.90;;;;;;4862752;29;20129;-89
2021/04/13 10:57:56;;;;;;;4.43;3.08;;;9.30;99.90;;;;;;4848203;29;20399;-88
2021/04/13 11:00:33;;;;;;;4.72;2.85;;;9.50;99.90;;;;;;4844147;29;20061;-89
2021/04/13 11:03:37;;;;;;;6.07;2.28;;;9.60;99.90;;;;;;4843824;29;20057;-89
2021/04/13 11:06:40;;;;;;;6.22;2.70;;;9.60;99.90;;;;;;4844119;29;20058;-88
2021/04/13 11:09:40;;;;;;;4.85;2.95;;;9.60;99.90;;;;;;4843962;29;20098;-88
2021/04/13 11:12:45;;;;;;;5.68;3.00;;;9.70;99.90;;;;;;4899776;29;20056;-89
2021/04/13 11:15:33;;;;;;;6.03;2.95;;;9.80;99.90;;;;;;4899863;29;20052;-89
2021/04/13 11:18:02;;;;;;;7.00;2.83;;;9.90;99.90;;;;;;4899701;29;20458;-88
2021/04/13 11:20:53;;;;;;;8.27;4.80;;;9.90;97.80;;;;;;4899690;29;20104;-88
2021/04/13 11:23:54;;;;;;;6.35;3.92;;;9.90;99.90;;;;;;4895976;29;20060;-88
2021/04/13 11:27:09;;;;;;;7.65;2.90;;;9.90;99.90;;;;;;4935946;28;20043;-87
2021/04/13 11:29:59;;;;;;;7.25;2.88;;;10.00;99.90;;;;;;4957997;29;20047;-89
2021/04/13 11:32:57;;;;;;;4.30;2.40;;;10.10;98.80;;;;;;4954807;29;20055;-89
2021/04/13 11:35:27;;;;;;;5.40;2.78;;;10.10;98.40;;;;;;4957674;29;20073;-88
2021/04/13 11:38:10;;;;;;;8.00;3.30;;;10.10;99.90;;;;;;4957718;29;20487;-87
2021/04/13 11:41:01;;;;;;;5.32;3.08;;;10.20;99.90;;;;;;4957843;29;20062;-87
2021/04/13 11:43:28;;;;;;;4.90;2.90;;;10.30;99.90;;;;;;4919393;29;20772;-87
2021/04/13 11:46:00;;;;;;;6.32;3.22;;;10.40;99.50;;;;;;4957948;29;20047;-87
2021/04/13 11:48:34;;;;;;;6.90;3.85;;;10.40;97.10;;;;;;4957797;29;20464;-87
2021/04/13 11:51:03;;;;;;;5.15;3.50;;;10.40;99.90;;;;;;4957764;29;20051;-87
2021/04/13 11:53:38;;;;;;;9.23;4.00;;;10.40;94.20;;;;;;4957861;29;20051;-88
2021/04/13 11:56:33;;;;;;;4.88;3.22;;;10.40;97.50;;;;;;4959508;28;20047;-86
2021/04/13 11:59:20;;;;;;;6.22;4.05;;;10.30;97.90;;;;;;4976898;28;20109;-88
2021/04/13 12:01:49;;;;;;;7.60;3.53;;;10.30;99.10;;;;;;4977407;28;20380;-86
2021/04/13 12:04:19;;;;;;;5.65;3.78;;;10.30;98.70;;;;;;4976638;28;20128;-84
2021/04/13 12:06:57;;;;;;;6.68;3.60;;;10.40;98.50;;;;;;4976642;28;20046;-86
2021/04/13 12:09:46;;;;;;;32.28;7.28;;;10.30;97.40;;;;;;4976888;28;20055;-85
2021/04/13 12:12:50;;;;;;;7.53;3.95;;;10.20;98.50;;;;;;4975597;28;20055;-86
2021/04/13 12:15:40;;;;;;;9.02;3.97;;;10.10;99.90;;;;;;4976117;28;20046;-90
2021/04/13 12:18:59;;;;;;;7.75;3.25;;;10.00;99.20;;;;;;4885757;29;20052;-85
2021/04/13 12:21:58;;;;;;;5.25;2.95;;;10.10;99.50;;;;;;4842531;29;20126;-86
2021/04/13 12:24:51;;;;;;;5.78;3.58;;;10.10;98.90;;;;;;4805542;29;20066;-86
2021/04/13 12:27:46;;;;;;;7.70;5.13;;;10.10;98.40;;;;;;4770084;30;20055;-86
2021/04/13 12:30:55;;;;;;;5.55;3.45;;;10.10;98.80;;;;;;4770266;30;20115;-85
2021/04/13 12:34:00;;;;;;;6.88;4.20;;;10.00;99.90;;;;;;4769419;30;20101;-86
2021/04/13 12:36:49;;;;;;;8.23;3.75;;;10.00;96.90;;;;;;4776086;30;20051;-83
2021/04/13 12:39:40;;;;;;;7.63;4.25;;;10.00;96.80;;;;;;4770168;30;20087;-81
2021/04/13 12:42:07;;;;;;;7.78;4.43;;;10.10;96.40;;;;;;4763795;30;20097;-81
2021/04/13 12:44:34;;;;;;;11.30;4.95;;;10.20;98.10;;;;;;4770038;30;20055;-80
2021/04/13 12:47:03;;;;;;;6.05;4.15;;;10.30;98.30;;;;;;4769899;30;20056;-81
2021/04/13 12:49:32;;;;;;;9.63;4.50;;;10.30;98.80;;;;;;4770154;30;20382;-81
2021/04/13 12:52:02;;;;;;;5.90;3.83;;;10.30;98.30;;;;;;4776632;30;20120;-82
2021/04/13 12:54:32;;;;;;;5.90;3.60;;;10.20;98.30;;;;;;4814680;29;20057;-82
2021/04/13 12:57:04;;;;;;;6.60;3.90;;;10.10;97.00;;;;;;4878876;29;20071;-80
2021/04/13 12:59:32;;;;;;;7.57;4.20;;;10.10;95.90;;;;;;4879269;29;20410;-80
2021/04/13 13:01:59;;;;;;;5.55;3.70;;;10.10;97.60;;;;;;4923528;29;20048;-80
2021/04/13 13:04:34;;;;;;;7.40;3.97;;;10.10;97.10;;;;;;4967402;28;20473;-82
2021/04/13 13:07:01;;;;;;;5.25;3.60;;;10.20;97.30;;;;;;4975622;28;20051;-81
2021/04/13 13:09:33;;;;;;;6.28;4.15;;;10.20;98.20;;;;;;4975637;28;20054;-81
2021/04/13 13:12:02;;;;;;;6.45;4.22;;;10.30;98.50;;;;;;4975535;28;20054;-82
2021/04/13 13:14:30;;;;;;;8.50;5.15;;;10.30;98.20;;;;;;4975774;28;20046;-80
2021/04/13 13:16:59;;;;;;;8.93;3.90;;;10.40;98.80;;;;;;4975871;28;20064;-82
2021/04/13 13:19:32;;;;;;;8.77;3.70;;;10.40;99.10;;;;;;4975375;28;20057;-82
2021/04/13 13:22:02;;;;;;;6.28;3.70;;;10.50;99.30;;;;;;4975471;28;20054;-80
2021/04/13 13:24:32;;;;;;;6.40;3.40;;;10.50;96.80;;;;;;4975696;28;20047;-81
2021/04/13 13:27:15;;;;;;;7.78;4.00;;;10.50;95.30;;;;;;4975650;28;20059;-82
2021/04/13 13:29:44;;;;;;;7.78;4.10;;;10.40;97.70;;;;;;4975829;28;20054;-80
2021/04/13 13:32:14;;;;;;;8.13;5.15;;;10.40;95.40;;;;;;4975340;28;20061;-80
2021/04/13 13:34:40;;;;;;;7.47;3.58;;;10.50;95.00;;;;;;4975175;28;20065;-86
2021/04/13 13:37:10;;;;;;;7.45;3.97;;;10.60;96.30;;;;;;4975149;28;20057;-85
2021/04/13 13:39:41;;;;;;;7.50;4.03;;;10.70;94.50;;;;;;4974757;28;20054;-85
2021/04/13 13:42:11;;;;;;;52.88;22.35;;;10.80;92.80;;;;;;4975009;28;20055;-85
2021/04/13 13:44:40;;;;;;;8.77;3.78;;;10.80;92.90;;;;;;4972057;28;20069;-84
2021/04/13 13:47:24;;;;;;;4.45;3.10;;;10.90;93.10;;;;;;4979529;28;20046;-87
2021/04/13 13:49:52;;;;;;;5.75;3.15;;;10.80;93.40;;;;;;4979348;28;20055;-86
2021/04/13 13:52:50;;;;;;;5.60;3.25;;;10.80;95.30;;;;;;4963669;28;20063;-86
2021/04/13 13:55:25;;;;;;;5.60;2.92;;;10.80;95.90;;;;;;4971513;28;20050;-85
2021/04/13 13:57:59;;;;;;;3.60;2.00;;;10.80;91.90;;;;;;4978779;28;20061;-85
2021/04/13 14:00:36;;;;;;;5.20;1.70;;;10.80;91.10;;;;;;4978852;28;20050;-86
2021/04/13 14:03:07;;;;;;;4.85;1.80;;;10.70;90.40;;;;;;4978856;28;20057;-86
2021/04/13 14:05:36;;;;;;;7.35;3.25;;;10.70;88.70;;;;;;4979042;28;20055;-86
2021/04/13 14:08:05;;;;;;;2.60;1.70;;;10.70;90.40;;;;;;4978698;28;20387;-86
2021/04/13 14:10:34;;;;;;;5.47;2.30;;;10.70;90.80;;;;;;4978182;28;20047;-86
2021/04/13 14:13:13;;;;;;;5.40;2.70;;;10.70;88.40;;;;;;4978904;28;20105;-86
2021/04/13 14:15:40;;;;;;;4.20;2.53;;;10.70;90.50;;;;;;4978726;28;20379;-86
2021/04/13 14:18:10;;;;;;;7.82;2.28;;;10.80;87.80;;;;;;4978572;28;20050;-86
2021/04/13 14:21:04;;;;;;;2.95;1.38;;;10.90;86.50;;;;;;4974872;28;20051;-86
2021/04/13 14:23:31;;;;;;;4.45;2.00;;;11.10;86.60;;;;;;4959474;29;20055;-85
2021/04/13 14:25:58;;;;;;;2.80;1.85;;;11.20;85.20;;;;;;4960325;28;20047;-86
2021/04/13 14:28:25;;;;;;;4.82;1.70;;;11.20;87.30;;;;;;4978426;28;20057;-85
2021/04/13 14:30:53;;;;;;;4.53;2.45;;;11.30;84.00;;;;;;4978373;28;20077;-86
2021/04/13 14:33:20;;;;;;;5.05;2.55;;;11.30;84.10;;;;;;4978435;28;20073;-86
2021/04/13 14:35:47;;;;;;;4.25;2.72;;;11.30;81.20;;;;;;4978641;28;20046;-86
2021/04/13 14:38:16;;;;;;;4.80;2.97;;;11.20;87.30;;;;;;4978138;28;20437;-86
2021/04/13 14:40:43;;;;;;;10.63;3.60;;;11.20;86.50;;;;;;4978195;28;20050;-86
2021/04/13 14:43:09;;;;;;;9.15;3.17;;;11.10;88.70;;;;;;4978278;28;20120;-86
2021/04/13 14:45:36;;;;;;;6.95;3.47;;;;;;;;;;4978281;28;20047;-86
2021/04/13 14:48:05;;;;;;;6.28;3.00;;;11.00;84.60;;;;;;4978026;28;20395;-86
2021/04/13 14:50:34;;;;;;;7.53;3.40;;;11.00;89.20;;;;;;4978405;28;20162;-86
2021/04/13 14:53:01;;;;;;;7.15;4.10;;;11.00;87.70;;;;;;4977656;28;20059;-86
2021/04/13 14:55:28;;;;;;;6.00;3.70;;;11.00;88.00;;;;;;4977614;28;20481;-86
2021/04/13 14:57:55;;;;;;;6.30;4.00;;;11.00;92.10;;;;;;4976805;28;20086;-86
2021/04/13 15:00:23;;;;;;;5.55;3.58;;;11.00;93.00;;;;;;4977844;28;20051;-85
2021/04/13 15:02:49;;;;;;;6.95;3.30;;;11.10;90.80;;;;;;4977775;28;20061;-86
2021/04/13 15:05:16;;;;;;;11.75;5.10;;;11.10;91.40;;;;;;4978127;28;20047;-86
2021/04/13 15:07:44;;;;;;;9.48;4.63;;;11.20;91.20;;;;;;4977742;28;20058;-86
2021/04/13 15:10:12;;;;;;;6.15;3.45;;;11.10;91.90;;;;;;4977543;28;20223;-86
2021/04/13 15:12:39;;;;;;;8.43;4.13;;;11.10;91.20;;;;;;4977882;28;20051;-86
2021/04/13 15:15:09;;;;;;;7.70;3.72;;;11.10;91.40;;;;;;4977336;28;20046;-86
2021/04/13 15:17:35;;;;;;;6.53;4.03;;;11.00;88.50;;;;;;4977624;28;20061;-86
2021/04/13 15:20:03;;;;;;;7.47;3.90;;;11.00;89.90;;;;;;4977694;28;20058;-86
2021/04/13 15:22:29;;;;;;;7.50;4.25;;;11.00;91.80;;;;;;4977435;28;20467;-86
2021/04/13 15:24:57;;;;;;;6.72;3.70;;;;;;;;;;4977508;28;20042;-86
2021/04/13 15:27:24;;;;;;;5.70;3.67;;;11.10;92.30;;;;;;4977170;28;20066;-86
2021/04/13 15:29:51;;;;;;;6.70;3.83;;;11.10;94.50;;;;;;4960605;28;20388;-86
2021/04/13 15:32:18;;;;;;;7.30;4.18;;;11.20;91.50;;;;;;4957869;29;20065;-86
2021/04/13 15:34:47;;;;;;;6.03;4.13;;;11.30;93.70;;;;;;4957786;29;20535;-86
2021/04/13 15:37:23;;;;;;;9.45;4.28;;;11.20;91.70;;;;;;4958144;29;20063;-86
2021/04/13 15:39:50;;;;;;;6.88;3.75;;;11.20;92.60;;;;;;4957864;29;20055;-86
2021/04/13 15:42:19;;;;;;;6.72;4.03;;;11.20;92.90;;;;;;4957988;29;20055;-85
2021/04/13 15:44:49;;;;;;;5.70;3.55;;;11.20;93.10;;;;;;4957707;29;20058;-85
2021/04/13 15:47:15;;;;;;;5.68;3.70;;;11.20;95.10;;;;;;4957815;29;20066;-86
2021/04/13 15:49:42;;;;;;;5.63;4.07;;;11.20;93.50;;;;;;4957715;29;20047;-86
2021/04/13 15:52:09;;;;;;;6.18;4.13;;;11.20;92.20;;;;;;4957376;29;20058;-86
2021/04/13 15:54:36;;;;;;;6.57;4.75;;;11.10;92.10;;;;;;4957691;29;20059;-86
2021/04/13 15:57:03;;;;;;;7.15;5.07;;;11.10;92.40;;;;;;4957098;28;20079;-86
2021/04/13 15:59:30;;;;;;;8.65;5.53;;;11.00;94.60;;;;;;4957638;29;20046;-86
2021/04/13 16:01:58;;;;;;;7.95;4.30;;;10.90;93.10;;;;;;4957452;29;20051;-85
2021/04/13 16:04:24;;;;;;;8.85;4.53;;;10.90;90.90;;;;;;4957423;29;20051;-86
2021/04/13 16:06:51;;;;;;;5.95;4.38;;;10.90;92.10;;;;;;4957600;29;20047;-85
2021/04/13 16:09:17;;;;;;;11.20;4.95;;;10.80;94.20;;;;;;4957049;28;20050;-86
2021/04/13 16:11:44;;;;;;;9.60;5.15;;;10.80;93.80;;;;;;4957517;29;20055;-84
2021/04/13 16:14:11;;;;;;;6.95;4.22;;;10.90;93.80;;;;;;4957111;29;20055;-86
2021/04/13 16:16:45;;;;;;;7.43;4.47;;;10.90;92.90;;;;;;4956974;29;20539;-86
2021/04/13 16:19:13;;;;;;;6.07;3.17;;;11.00;93.70;;;;;;4957559;29;20381;-87
2021/04/13 16:21:41;;;;;;;10.15;6.50;;;11.00;91.90;;;;;;4947698;29;20079;-87
2021/04/13 16:24:09;;;;;;;7.50;4.10;;;11.00;92.20;;;;;;4941949;29;20055;-87
2021/04/13 16:26:39;;;;;;;5.97;4.43;;;11.00;93.20;;;;;;4944517;29;20484;-87
2021/04/13 16:29:07;;;;;;;6.60;4.43;;;11.00;94.90;;;;;;4937928;29;20099;-87
2021/04/13 16:31:43;;;;;;;6.20;4.95;;;10.90;95.00;;;;;;4937865;29;20063;-86
2021/04/13 16:34:12;;;;;;;13.73;6.07;;;10.90;91.00;;;;;;4937881;29;20060;-87
2021/04/13 16:36:42;;;;;;;5.50;4.30;;;10.80;92.70;;;;;;4937987;29;20071;-86
2021/04/13 16:39:25;;;;;;;5.35;3.97;;;10.80;94.40;;;;;;4938177;29;20056;-87
2021/04/13 16:41:53;;;;;;;6.78;5.43;;;10.70;94.30;;;;;;4937902;29;20051;-86
2021/04/13 16:44:22;;;;;;;7.70;4.35;;;10.70;95.40;;;;;;4937951;29;20055;-86
2021/04/13 16:46:53;;;;;;;8.73;4.13;;;10.70;95.50;;;;;;4937563;29;20054;-86
2021/04/13 16:49:22;;;;;;;7.57;4.32;;;10.70;95.50;;;;;;4937978;29;20191;-87
2021/04/13 16:51:50;;;;;;;7.57;4.82;;;10.70;94.60;;;;;;4937492;29;20063;-87
2021/04/13 16:54:17;;;;;;;6.55;4.60;;;10.60;96.00;;;;;;4942752;29;20476;-89
2021/04/13 16:56:44;;;;;;;7.13;4.93;;;10.60;96.40;;;;;;4956387;29;20051;-88
2021/04/13 16:59:11;;;;;;;8.07;4.70;;;10.60;97.20;;;;;;4956543;29;20523;-87
2021/04/13 17:01:40;;;;;;;13.52;5.05;;;10.50;95.70;;;;;;4956626;29;20051;-86
2021/04/13 17:04:13;;;;;;;8.32;6.07;;;10.40;98.30;;;;;;4956607;29;20061;-88
2021/04/13 17:06:42;;;;;;;9.13;5.82;;;10.40;97.90;;;;;;4956748;29;20109;-88
2021/04/13 17:09:13;;;;;;;6.95;5.07;;;10.30;98.50;;;;;;4956438;29;20370;-88
2021/04/13 17:11:42;;;;;;;10.45;5.50;;;10.30;98.10;;;;;;4955640;29;20058;-88
2021/04/13 17:14:14;;;;;;;11.23;5.05;;;10.30;99.70;;;;;;4956212;29;20051;-87
2021/04/13 17:16:43;;;;;;;7.15;5.05;;;10.20;99.10;;;;;;4956385;29;20055;-87
2021/04/13 17:19:12;;;;;;;11.15;5.30;;;10.20;99.50;;;;;;4939964;28;20063;-88
2021/04/13 17:21:39;;;;;;;10.68;5.63;;;10.20;99.90;;;;;;4956077;29;20051;-87
2021/04/13 17:24:08;;;;;;;7.20;5.47;;;10.20;99.90;;;;;;4956209;29;20054;-88
2021/04/13 17:26:35;;;;;;;8.82;5.20;;;10.20;99.90;;;;;;4956231;29;20043;-88
2021/04/13 17:29:04;;;;;;;9.75;5.13;;;10.20;99.90;;;;;;4956125;29;20057;-88
2021/04/13 17:31:33;;;;;;;8.65;6.13;;;10.20;99.90;;;;;;4956302;29;20109;-88
2021/04/13 17:34:00;;;;;;;13.38;5.25;;;10.20;99.90;;;;;;4956513;29;20375;-87
2021/04/13 17:36:29;;;;;;;8.82;5.68;;;10.20;99.90;;;;;;4942404;29;20107;-88
2021/04/13 17:38:58;;;;;;;6.72;4.03;;;10.20;99.90;;;;;;4936817;29;20113;-88
2021/04/13 17:41:25;;;;;;;7.57;4.50;;;10.20;99.90;;;;;;4936990;29;20051;-87
2021/04/13 17:43:55;;;;;;;7.70;5.03;;;10.20;99.90;;;;;;4937093;29;20060;-88
2021/04/13 17:46:22;;;;;;;12.18;4.93;;;10.20;99.90;;;;;;4937633;29;20118;-87
2021/04/13 17:48:49;;;;;;;6.20;3.75;;;10.20;99.90;;;;;;4936973;29;20051;-88
2021/04/13 17:51:17;;;;;;;8.27;4.40;;;10.20;99.90;;;;;;4936853;29;20063;-88
2021/04/13 17:53:51;;;;;;;9.02;4.07;;;10.20;99.90;;;;;;4937703;29;20528;-88
2021/04/13 17:56:21;;;;;;;6.45;2.05;;;10.10;99.90;;;;;;4955715;29;20052;-87
2021/04/13 17:58:51;;;;;;;2.78;1.75;;;11.60;99.90;;;;;;4955981;29;20050;-86
2021/04/13 18:01:18;;;;;;;3.70;1.90;;;10.00;99.90;;;;;;4956013;29;20101;-88
2021/04/13 18:03:46;;;;;;;4.32;1.45;;;10.00;99.90;;;;;;4956384;29;20055;-89
2021/04/13 18:06:19;;;;;;;2.33;1.13;;;9.90;99.90;;;;;;4956004;29;20440;-90
2021/04/13 18:08:48;;;;;;;4.40;1.10;;;9.80;99.90;;;;;;4956362;29;20065;-88
2021/04/13 18:11:18;;;;;;;3.22;1.90;;;9.70;99.90;;;;;;4955367;29;20086;-88
2021/04/13 18:13:45;;;;;;;8.00;1.63;;;9.70;99.90;;;;;;4956027;29;20061;-89
2021/04/13 18:16:13;;;;;;;4.82;1.55;;;9.70;99.90;;;;;;4954774;29;20141;-92
2021/04/13 18:18:41;;;;;;;3.50;2.08;;;9.60;99.90;;;;;;4955748;29;20482;-90
2021/04/13 18:21:10;;;;;;;6.22;2.08;;;9.50;99.90;;;;;;4955481;29;20077;-88
2021/04/13 18:23:44;;;;;;;4.32;2.13;;;9.50;99.90;;;;;;4955785;29;20051;-89
2021/04/13 18:26:14;;;;;;;6.30;2.15;;;9.40;99.90;;;;;;4955889;29;20058;-87
2021/04/13 18:28:43;;;;;;;3.42;1.58;;;9.40;99.90;;;;;;4955858;29;20142;-88
2021/04/13 18:31:13;;;;;;;8.30;2.42;;;9.30;99.90;;;;;;4948182;29;20127;-88
2021/04/13 18:33:41;;;;;;;5.50;2.13;;;9.30;99.90;;;;;;4940439;29;20118;-87
2021/04/13 18:36:09;;;;;;;5.47;1.70;;;9.20;99.90;;;;;;4940336;29;20063;-88
2021/04/13 18:38:38;;;;;;;4.88;2.08;;;9.20;99.90;;;;;;4938442;29;20050;-89
2021/04/13 18:41:06;;;;;;;5.13;2.10;;;9.10;99.90;;;;;;4939693;29;20483;-89
2021/04/13 18:43:34;;;;;;;5.03;2.33;;;9.00;99.90;;;;;;4940048;29;20058;-87
2021/04/13 18:46:03;;;;;;;3.05;1.75;;;9.00;99.90;;;;;;4939969;29;20376;-90
2021/04/13 18:48:32;;;;;;;6.90;1.92;;;8.90;99.90;;;;;;4940226;29;20051;-90
2021/04/13 18:51:00;;;;;;;5.22;1.83;;;8.90;99.90;;;;;;4940077;29;20071;-92
2021/04/13 18:53:28;;;;;;;4.55;1.48;;;8.80;99.90;;;;;;4939871;29;20457;-89
2021/04/13 18:55:57;;;;;;;3.78;1.23;;;8.90;99.90;;;;;;4939235;29;20048;-86
2021/04/13 18:58:26;;;;;;;3.25;1.45;;;8.70;99.90;;;;;;4939824;29;20052;-87
2021/04/13 19:01:02;;;;;;;4.85;1.80;;;8.70;99.90;;;;;;4939586;29;20480;-87
2021/04/13 19:03:29;;;;;;;3.75;1.75;;;8.70;99.90;;;;;;4940027;29;20056;-87
2021/04/13 19:05:57;;;;;;;4.35;1.55;;;8.60;99.90;;;;;;4940179;29;20056;-90
2021/04/13 19:08:27;;;;;;;2.13;1.40;;;8.50;99.90;;;;;;4939727;29;20097;-94
2021/04/13 19:10:56;;;;;;;2.38;0.88;;;8.50;99.90;;;;;;4939957;29;20066;-89
2021/04/13 19:13:26;;;;;;;5.35;1.40;;;8.50;99.90;;;;;;4939788;29;20058;-90
2021/04/13 19:15:54;;;;;;;3.92;1.20;;;8.40;99.90;;;;;;4939435;29;20112;-89
2021/04/13 19:18:23;;;;;;;11.95;5.78;;;8.40;99.90;;;;;;4939905;29;20090;-86
2021/04/13 19:20:53;;;;;;;4.10;1.85;;;8.40;99.90;;;;;;4939440;29;20055;-87
2021/04/13 19:23:25;;;;;;;4.10;1.60;;;8.30;99.90;;;;;;4939577;29;20052;-89
2021/04/13 19:25:56;;;;;;;3.65;1.55;;;8.30;99.90;;;;;;4957276;29;20047;-87
2021/04/13 19:28:26;;;;;;;3.60;2.00;;;8.20;99.90;;;;;;4958443;29;20051;-88
2021/04/13 19:31:00;;;;;;;4.50;2.15;;;8.20;99.90;;;;;;4958542;29;20059;-86
2021/04/13 19:33:28;;;;;;;5.70;1.80;;;8.80;99.90;;;;;;4958438;29;20051;-89
2021/04/13 19:35:56;;;;;;;4.13;1.67;;;8.20;99.90;;;;;;4958857;29;20059;-90
2021/04/13 19:38:26;;;;;;;3.92;2.53;;;8.10;99.90;;;;;;4958411;29;20054;-89
2021/04/13 19:40:53;;;;;;;3.08;1.80;;;8.00;99.90;;;;;;4957981;29;20097;-86
2021/04/13 19:43:22;;;;;;;5.43;2.33;;;8.00;99.90;;;;;;4957533;28;20055;-86
2021/04/13 19:45:50;;;;;;;3.95;1.55;;;8.00;99.90;;;;;;4958098;29;20557;-87
2021/04/13 19:48:20;;;;;;;3.53;2.20;;;7.90;99.90;;;;;;4958078;29;20167;-85
2021/04/13 19:50:51;;;;;;;6.60;2.90;;;7.90;99.90;;;;;;4957918;29;20051;-84
2021/04/13 19:53:19;;;;;;;6.88;2.20;;;7.90;99.90;;;;;;4957799;29;20051;-86
2021/04/13 19:55:46;;;;;;;3.35;2.30;;;7.80;99.90;;;;;;4957883;29;20051;-84
2021/04/13 19:58:16;;;;;;;5.28;2.17;;;7.80;99.90;;;;;;4958063;29;20051;-85
2021/04/13 20:00:46;;;;;;;4.85;2.10;;;7.70;99.90;;;;;;4958010;29;20051;-86
2021/04/13 20:03:13;;;;;;;3.72;2.10;;;7.70;99.90;;;;;;4957975;29;20094;-85
2021/04/13 20:05:40;;;;;;;5.20;2.00;;;7.60;99.90;;;;;;4957609;29;20061;-85
2021/04/13 20:08:08;;;;;;;5.60;1.70;;;7.50;99.90;;;;;;4958002;29;20376;-85
2021/04/13 20:10:37;;;;;;;5.22;1.98;;;7.50;99.90;;;;;;4957620;29;20201;-84
2021/04/13 20:13:05;;;;;;;4.60;2.22;;;7.40;99.90;;;;;;4957770;29;20114;-83
2021/04/13 20:15:38;;;;;;;3.67;2.42;;;7.30;99.90;;;;;;4954132;29;20353;-84
2021/04/13 20:18:10;;;;;;;3.45;2.60;;;7.30;99.90;;;;;;4944811;29;20391;-84
2021/04/13 20:20:45;;;;;;;7.07;2.70;;;7.20;99.90;;;;;;4941559;29;20156;-84
2021/04/13 20:23:13;;;;;;;4.82;2.83;;;7.10;99.90;;;;;;4938800;29;20051;-85
2021/04/13 20:25:43;;;;;;;8.73;2.55;;;7.00;99.90;;;;;;4955240;29;20043;-83
2021/04/13 20:28:11;;;;;;;6.40;2.72;;;7.00;99.90;;;;;;4958714;29;20051;-83
2021/04/13 20:30:40;;;;;;;7.15;2.78;;;6.90;99.90;;;;;;4962497;29;20464;-83
2021/04/13 20:33:14;;;;;;;8.68;2.95;;;6.80;99.90;;;;;;4967606;29;20451;-83
2021/04/13 21:50:44;;;;;;;7.03;4.18;;;5.60;99.90;;;;;;4928995;28;20051;-83
2021/04/13 21:58:23;;;;;;;8.40;4.78;;;5.50;99.90;;;;;;5730483;23;20039;-79
2021/04/13 22:00:51;;;;;;;7.65;4.00;;;5.50;99.90;;;;;;4958119;28;20039;-81
2021/04/13 22:03:19;;;;;;;8.07;4.40;;;5.50;99.90;;;;;;4960006;29;20066;-81
2021/04/13 22:08:20;;;;;;;9.25;4.40;;;5.40;99.90;;;;;;4923473;29;20053;-81
